Portada
METAR-TAF:

METAR-TAF

Aeroports :

Air Force Base Waterkloof

Waterkloof, Sud-àfrica

latitud: 25-50S, longitud: 028-13E, altitud: 1498 m

Observació

L'informe es va fer fa 17 minuts, a les 09:00 UTC
Vent 3 kt del Oest
Temperatura 24°C
Humitat 38%
Pressió 1026 hPa

METAR: FAWK 240900Z AUTO 26003KT //// // ////// 24/09 Q1026

Hora: 11:17 (09:17 UTC)

Pronòstic

L'informe es va fer fa 3 hores i 4 minuts, a les 06:13 UTC
Pronòstic vàlid del 24 a les 07 UTC al 24 a les 18 UTC
Vent 3 kt amb direcció variable
Visibilitat 10 km o més
sense núvols per sota de 1500 mi sense presència de cumulonimbus.

TAF: FAWK 240613Z 2407/2418 VRB03KT CAVOK TX27/2413Z TN18/2418Z

Observacions i pronòstics meteorològics de més de 4000 aeroports (METAR i TAF).

Les estacions disponibles són els punts grocs i vermells al mapa.

Posi el ratolí al punt desitjat per veure el nom de l'estació.

Feu clic per veure les observacions i els pronòstics meteorològics.

Per canviar el mapa: feu clic els botons verds amb una creu de color negre per apropar; al botó verd amb un guió per allunyar la imatge; o en les fletxes verdes per a mapes adjacents.


METAR-TAF: